Time;durP1;ratioP1;P1;durP2;ratioP2;P2;SDS_P1;SDS_P2;PMS_P1;PMS_P2;Temp;Humidity;BMP_temperature;BMP_pressure;BME280_temperature;BME280_humidity;BME280_pressure;Samples;Min_cycle;Max_cycle;Signal;HPM_P1;HPM_P2
2022/02/02 00:00:19;;;;;;;25.98;4.93;;;;;;;4.00;100.00;99564.22;5071661;28;20032;-85
2022/02/02 00:02:50;;;;;;;41.90;6.70;;;;;;;3.99;100.00;99559.06;5072355;28;20056;-84
2022/02/02 00:05:32;;;;;;;34.83;6.25;;;;;;;4.00;100.00;99569.50;5055275;28;20032;-85
2022/02/02 00:08:06;;;;;;;37.00;5.60;;;;;;;4.04;100.00;99556.81;5057659;28;20043;-85
2022/02/02 00:10:55;;;;;;;32.38;5.40;;;;;;;4.00;100.00;99558.06;5057706;28;20032;-85
2022/02/02 00:13:42;;;;;;;30.30;7.03;;;;;;;4.06;100.00;99561.94;5074124;28;20032;-85
2022/02/02 00:16:40;;;;;;;44.35;7.53;;;;;;;4.04;100.00;99554.16;5057906;28;20469;-85
2022/02/02 00:19:21;;;;;;;45.38;8.90;;;;;;;4.12;100.00;99551.63;5074353;28;20094;-85
2022/02/02 00:21:51;;;;;;;44.90;7.32;;;;;;;4.24;100.00;99562.78;5057930;28;20032;-85
2022/02/02 00:27:01;;;;;;;39.42;7.63;;;;;;;4.23;100.00;99543.44;5074135;28;20032;-85
2022/02/02 00:29:33;;;;;;;37.10;7.05;;;;;;;4.24;100.00;99546.94;5057633;28;20090;-85
2022/02/02 00:32:17;;;;;;;58.15;9.15;;;;;;;4.27;100.00;99551.09;5057548;28;20033;-85
2022/02/02 00:34:42;;;;;;;43.83;7.53;;;;;;;4.33;100.00;99539.91;5057643;28;20040;-86
2022/02/02 00:37:08;;;;;;;48.55;11.57;;;;;;;4.33;100.00;99531.97;5057854;28;20758;-85
2022/02/02 00:39:34;;;;;;;45.88;9.85;;;;;;;4.33;100.00;99526.69;5074460;28;20068;-86
2022/02/02 00:42:00;;;;;;;65.07;11.00;;;;;;;4.29;100.00;99530.63;5058032;28;20047;-86
2022/02/02 00:44:26;;;;;;;;;;;;;;;4.38;100.00;99540.28;5074284;28;20275;-85
2022/02/02 00:46:53;;;;;;;46.38;10.57;;;;;;;4.44;100.00;99529.09;5073830;28;19912;-85
2022/02/02 00:49:19;;;;;;;45.42;9.15;;;;;;;4.37;100.00;99533.34;5057532;28;20039;-85
2022/02/02 00:51:49;;;;;;;44.58;11.35;;;;;;;4.39;100.00;99526.09;5074675;28;20024;-85
2022/02/02 00:54:23;;;;;;;54.65;11.15;;;;;;;4.44;100.00;99523.81;5057625;28;20048;-85
2022/02/02 00:56:49;;;;;;;45.10;9.55;;;;;;;4.42;100.00;99521.34;5057528;28;20024;-85
2022/02/02 00:59:16;;;;;;;51.85;7.85;;;;;;;4.38;100.00;99527.91;5074285;28;20084;-85
2022/02/02 01:01:41;;;;;;;48.00;7.78;;;;;;;4.41;100.00;99526.75;5075540;28;20032;-85
2022/02/02 01:04:07;;;;;;;49.92;9.68;;;;;;;4.34;100.00;99523.91;5057057;28;20673;-85
2022/02/02 01:06:37;;;;;;;40.03;8.23;;;;;;;4.30;99.50;99519.91;5074422;28;20037;-85
2022/02/02 01:15:51;;;;;;;33.67;6.57;;;;;;;4.33;97.97;99516.13;5074005;28;20033;-86
2022/02/02 01:28:11;;;;;;;31.40;5.22;;;;;;;4.16;97.26;99533.63;5074700;28;20093;-85
2022/02/02 01:30:37;;;;;;;28.25;5.75;;;;;;;4.34;97.02;99560.06;5058671;28;20016;-86
2022/02/02 01:33:02;;;;;;;42.95;7.25;;;;;;;4.42;96.54;99552.19;5074690;28;20374;-85
2022/02/02 01:35:28;;;;;;;37.92;5.57;;;;;;;4.40;96.06;99543.59;5074338;28;20089;-85
2022/02/02 01:37:55;;;;;;;34.22;6.68;;;;;;;4.43;95.83;99538.84;5058446;28;20290;-85
2022/02/02 01:40:27;;;;;;;41.97;8.07;;;;;;;4.42;95.29;99531.06;5057734;28;20378;-86
2022/02/02 01:42:58;;;;;;;50.13;9.38;;;;;;;4.45;95.02;99525.50;5058563;28;20047;-86
2022/02/02 01:45:32;;;;;;;34.65;6.50;;;;;;;4.36;94.93;99518.47;5058094;28;20040;-85
2022/02/02 01:48:12;;;;;;;34.83;6.05;;;;;;;4.37;94.36;99522.75;5075328;28;20127;-86
2022/02/02 01:55:57;;;;;;;57.85;7.40;;;;;;;4.27;94.39;99528.13;5076018;28;20029;-86
2022/02/02 02:00:55;;;;;;;24.30;5.50;;;;;;;4.34;94.28;99533.66;5077501;28;20111;-86
2022/02/02 02:03:21;;;;;;;38.85;6.55;;;;;;;4.24;94.46;99517.88;5078881;28;20474;-86
2022/02/02 02:05:46;;;;;;;26.02;6.38;;;;;;;4.29;94.24;99533.28;5060962;28;20033;-86
2022/02/02 02:08:13;;;;;;;47.80;8.63;;;;;;;4.31;94.05;99523.34;5061073;28;20125;-85
2022/02/02 02:10:38;;;;;;;23.05;5.13;;;;;;;4.23;94.03;99503.81;5078472;28;20578;-87
2022/02/02 02:13:12;;;;;;;40.50;5.20;;;;;;;4.28;94.45;99521.03;5054772;28;20035;-86
2022/02/02 02:15:40;;;;;;;31.90;6.07;;;;;;;4.18;94.11;99521.94;5052321;28;20040;-85
2022/02/02 02:18:05;;;;;;;25.45;4.10;;;;;;;4.21;94.18;99512.88;5053773;28;20039;-85
2022/02/02 02:20:31;;;;;;;36.38;5.00;;;;;;;4.23;94.05;99521.47;5053673;28;20028;-85
2022/02/02 02:22:56;;;;;;;38.88;7.70;;;;;;;4.16;94.03;99510.69;5053824;28;20036;-86
2022/02/02 02:25:25;;;;;;;37.85;5.75;;;;;;;4.25;94.01;99523.97;5053300;28;20044;-85
2022/02/02 02:27:51;;;;;;;29.52;6.65;;;;;;;4.25;93.88;99524.81;5053637;28;20131;-85
2022/02/02 02:57:47;;;;;;;30.00;5.20;;;;;;;4.00;98.88;99589.75;5070210;28;20032;-85
2022/02/02 03:30:08;;;;;;;36.58;5.85;;;;;;;3.99;96.64;99596.03;5069631;28;20040;-84
2022/02/02 03:49:17;;;;;;;35.05;5.22;;;;;;;4.03;96.51;99610.63;5069510;28;20029;-85
2022/02/02 03:57:23;;;;;;;30.35;6.15;;;;;;;4.18;95.68;99619.69;5069237;28;20036;-85
2022/02/02 04:07:53;;;;;;;30.02;6.05;;;;;;;4.17;95.73;99602.19;5069297;28;20033;-85
2022/02/02 04:10:19;;;;;;;23.80;3.97;;;;;;;4.05;95.94;99592.81;5052630;28;20115;-85
2022/02/02 05:06:50;;;;;;;23.73;5.50;;;;;;;3.97;95.49;99691.25;5071714;28;20036;-84
2022/02/02 05:12:14;;;;;;;21.57;4.53;;;;;;;4.05;95.20;99708.19;5072738;28;20026;-85
2022/02/02 05:15:38;;;;;;;23.77;3.03;;;;;;;4.09;94.74;99714.84;5070749;28;20048;-84
2022/02/02 05:17:49;;;;;;;16.75;2.80;;;;;;;4.12;94.03;99699.53;5070546;28;20039;-84
2022/02/02 05:53:03;;;;;;;22.63;3.38;;;;;;;4.20;89.00;99680.31;5082585;28;20048;-85
2022/02/02 05:55:37;;;;;;;20.45;2.92;;;;;;;4.18;88.56;99691.00;5055413;28;20795;-85
2022/02/02 05:58:06;;;;;;;16.70;2.63;;;;;;;4.10;88.82;99682.19;5054367;28;20041;-85
2022/02/02 06:00:35;;;;;;;11.90;2.47;;;;;;;4.18;88.56;99698.13;5054073;28;20557;-85
2022/02/02 06:03:01;;;;;;;16.20;2.83;;;;;;;4.14;88.30;99723.16;5053222;28;20036;-85
2022/02/02 06:05:28;;;;;;;;;;;;;;;4.17;88.27;99717.59;5054017;28;20439;-85
2022/02/02 06:07:55;;;;;;;13.48;2.60;;;;;;;4.13;87.87;99705.66;5070561;28;19913;-84
2022/02/02 06:10:22;;;;;;;15.00;3.40;;;;;;;4.22;87.94;99718.81;5070663;28;20020;-85
2022/02/02 06:12:50;;;;;;;19.73;3.25;;;;;;;4.15;87.68;99706.34;5070408;28;20075;-86
2022/02/02 06:15:18;;;;;;;15.20;3.45;;;;;;;4.15;87.47;99724.84;5070899;28;20060;-85
2022/02/02 06:17:53;;;;;;;22.63;3.90;;;;;;;4.25;87.16;99719.50;5053748;28;20874;-85
2022/02/02 06:20:20;;;;;;;17.02;3.78;;;;;;;4.18;86.76;99704.22;5070578;28;20071;-86
2022/02/02 06:23:01;;;;;;;13.30;3.22;;;;;;;4.22;86.04;99691.56;5053753;28;20031;-85
2022/02/02 06:25:29;;;;;;;13.48;3.58;;;;;;;4.23;85.92;99691.41;5069951;28;20037;-86
2022/02/02 06:28:04;;;;;;;30.13;6.63;;;;;;;4.20;85.59;99701.44;5053268;28;20107;-84
2022/02/02 06:30:31;;;;;;;24.48;5.63;;;;;;;4.27;85.49;99712.25;5080237;28;20075;-85
2022/02/02 06:33:04;;;;;;;42.00;6.53;;;;;;;4.27;85.07;99712.25;5062007;28;20512;-85
2022/02/02 06:35:30;;;;;;;18.60;3.10;;;;;;;4.29;85.04;99720.88;5053212;28;20028;-86
2022/02/02 06:37:55;;;;;;;19.08;4.10;;;;;;;4.32;85.08;99715.28;5059407;28;20400;-84
2022/02/02 06:40:23;;;;;;;22.83;3.97;;;;;;;4.22;85.02;99686.28;5080060;23;20048;-79
2022/02/02 06:42:50;;;;;;;16.45;2.95;;;;;;;4.28;84.24;99722.66;5063542;28;20035;-79
2022/02/02 06:45:16;;;;;;;20.00;3.45;;;;;;;4.32;84.66;99731.16;5069407;28;20529;-80
2022/02/02 06:47:43;;;;;;;30.75;4.68;;;;;;;4.31;84.32;99734.75;5087029;28;20028;-79
2022/02/02 06:50:17;;;;;;;19.58;3.33;;;;;;;4.23;84.16;99724.91;5086647;28;20051;-79
2022/02/02 06:52:47;;;;;;;20.77;3.60;;;;;;;4.28;83.94;99741.16;5086833;28;20063;-78
2022/02/02 06:55:28;;;;;;;15.40;3.22;;;;;;;4.23;84.16;99752.16;5068779;28;20028;-79
2022/02/02 06:58:45;;;;;;;26.23;4.22;;;;;;;4.34;83.75;99764.38;5070094;28;20039;-79
2022/02/02 07:01:32;;;;;;;16.80;3.05;;;;;;;4.23;83.62;99749.53;5069844;28;20064;-79
2022/02/02 07:04:20;;;;;;;25.13;3.25;;;;;;;4.28;83.58;99759.66;5052040;28;20481;-79
2022/02/02 07:07:05;;;;;;;24.80;4.13;;;;;;;4.26;83.70;99774.00;5070306;28;20465;-79
2022/02/02 07:09:58;;;;;;;20.85;3.63;;;;;;;4.32;83.54;99805.97;5069512;28;20037;-78
2022/02/02 07:12:37;;;;;;;29.05;5.75;;;;;;;4.30;83.28;99791.22;5069267;28;20474;-79
2022/02/02 07:15:27;;;;;;;19.33;4.32;;;;;;;4.31;82.94;99814.03;5051789;28;20855;-79
2022/02/02 07:20:34;;;;;;;23.92;5.28;;;;;;;4.22;82.92;99810.47;5085702;28;20035;-79
2022/02/02 07:23:09;;;;;;;30.63;6.07;;;;;;;4.18;82.57;99799.34;5069285;28;20394;-79
2022/02/02 07:31:38;;;;;;;29.73;4.93;;;;;;;4.29;82.20;99839.78;5086005;28;20032;-79
2022/02/02 07:34:38;;;;;;;27.30;4.35;;;;;;;4.23;82.20;99827.97;5052284;28;20044;-79
2022/02/02 07:37:07;;;;;;;17.00;3.10;;;;;;;4.23;81.43;99790.97;5052303;28;20044;-79
2022/02/02 07:39:34;;;;;;;19.30;2.70;;;;;;;4.22;80.69;99795.44;5052300;28;20115;-78
2022/02/02 07:42:05;;;;;;;16.52;2.92;;;;;;;4.26;80.35;99784.56;5052152;28;20042;-79
2022/02/02 07:44:36;;;;;;;16.58;4.18;;;;;;;4.30;80.27;99784.13;5051867;28;20032;-78
2022/02/02 07:47:06;;;;;;;22.67;3.83;;;;;;;4.31;79.74;99782.31;5068787;28;20040;-80
2022/02/02 07:49:36;;;;;;;21.90;3.78;;;;;;;4.22;79.84;99776.94;5052241;28;20043;-79
2022/02/02 07:52:08;;;;;;;19.15;3.85;;;;;;;4.27;79.79;99799.47;5053606;28;20036;-79
2022/02/02 07:54:39;;;;;;;28.77;4.80;;;;;;;4.29;80.10;99802.78;5069681;28;20037;-79
2022/02/02 07:57:14;;;;;;;16.40;3.65;;;;;;;4.33;79.09;99791.78;5069081;28;20036;-79
2022/02/02 08:00:03;;;;;;;14.43;3.95;;;;;;;4.31;79.15;99782.31;5051996;28;20036;-79
2022/02/02 08:05:00;;;;;;;18.27;3.28;;;;;;;4.32;79.57;99834.19;5085169;28;20023;-79
2022/02/02 08:07:31;;;;;;;21.02;3.53;;;;;;;4.27;79.91;99844.38;5068697;28;20135;-79
2022/02/02 08:10:10;;;;;;;21.02;4.03;;;;;;;4.26;80.25;99859.41;5068676;28;20067;-79
2022/02/02 08:12:44;;;;;;;19.17;2.72;;;;;;;4.26;80.21;99880.53;5068820;28;20047;-79
2022/02/02 08:15:12;;;;;;;17.23;3.60;;;;;;;4.33;80.43;99915.13;5068273;28;20094;-79
2022/02/02 08:17:38;;;;;;;19.10;3.30;;;;;;;4.37;80.55;99919.16;5068752;28;20025;-78
2022/02/02 08:20:04;;;;;;;;;;;;;;;4.38;80.43;99932.25;5068963;28;20044;-79
2022/02/02 08:22:29;;;;;;;;;;;;;;;4.35;80.08;99907.91;5052370;28;19908;-79
2022/02/02 08:24:56;;;;;;;20.85;3.53;;;;;;;4.32;80.11;99924.06;5051440;28;19917;-79
2022/02/02 08:27:22;;;;;;;17.20;3.13;;;;;;;4.28;79.90;99912.09;5055449;28;20371;-78
2022/02/02 08:29:48;;;;;;;26.48;4.70;;;;;;;4.33;79.67;99923.06;5072267;28;20039;-78
2022/02/02 08:32:14;;;;;;;21.35;3.13;;;;;;;4.34;79.46;99900.97;5072484;28;20116;-79
2022/02/02 08:34:45;;;;;;;25.42;3.95;;;;;;;4.34;79.21;99900.97;5055509;28;20486;-79
2022/02/02 08:37:11;;;;;;;21.38;5.00;;;;;;;4.31;79.25;99922.38;5055535;28;20036;-79
2022/02/02 08:42:04;;;;;;;22.97;4.80;;;;;;;4.36;79.45;99955.34;5089332;28;20086;-78
2022/02/02 08:44:41;;;;;;;26.88;4.13;;;;;;;4.38;79.28;99953.38;5088744;28;20029;-79
2022/02/02 08:47:09;;;;;;;26.88;5.40;;;;;;;4.37;79.03;99937.66;5072131;28;20049;-78
2022/02/02 08:49:42;;;;;;;22.05;3.92;;;;;;;4.38;79.15;99952.56;5072656;28;20123;-79
2022/02/02 08:52:09;;;;;;;21.58;2.67;;;;;;;4.32;79.30;99963.69;5089595;28;20505;-79
2022/02/02 08:54:45;;;;;;;23.83;3.50;;;;;;;4.28;79.68;99986.06;5088534;28;20031;-79
2022/02/02 09:00:10;;;;;;;22.48;3.28;;;;;;;4.38;79.23;99995.69;5052776;28;20052;-79
2022/02/02 09:02:37;;;;;;;26.38;3.92;;;;;;;4.28;79.08;99968.41;5055873;28;20043;-79
2022/02/02 09:05:20;;;;;;;21.23;3.35;;;;;;;4.26;79.00;99983.59;5072160;28;20023;-79
2022/02/02 09:07:48;;;;;;;14.20;3.08;;;;;;;4.30;78.74;99963.81;5073011;28;20494;-78
2022/02/02 09:10:19;;;;;;;26.80;4.28;;;;;;;4.26;78.70;99969.53;5055974;28;20036;-79
2022/02/02 09:23:31;;;;;;;20.63;3.13;;;;;;;4.30;77.66;99950.59;5089353;28;20020;-79
2022/02/02 09:34:06;;;;;;;19.42;3.67;;;;;;;4.39;76.90;99931.25;5089222;28;20040;-78
2022/02/02 09:36:34;;;;;;;18.17;3.42;;;;;;;4.36;76.32;99928.09;5055500;28;20127;-78
2022/02/02 09:39:08;;;;;;;19.92;4.95;;;;;;;4.38;76.07;99910.28;5071405;28;20051;-79
2022/02/02 09:44:04;;;;;;;20.88;3.55;;;;;;;4.56;75.58;99927.03;5073324;28;20031;-78
2022/02/02 09:47:20;;;;;;;19.27;3.88;;;;;;;4.47;75.00;99869.75;5055955;28;20028;-79
2022/02/02 09:49:35;;;;;;;26.00;3.25;;;;;;;4.61;74.88;99895.72;5067454;28;20079;-79
2022/02/02 09:52:16;;;;;;;22.27;4.88;;;;;;;4.55;74.86;99893.66;5072699;28;20028;-80
2022/02/02 09:55:00;;;;;;;26.52;3.95;;;;;;;4.55;74.73;99906.88;5055118;28;20036;-79
2022/02/02 09:57:56;;;;;;;25.50;3.15;;;;;;;4.50;74.67;99893.25;5055781;28;20292;-79
2022/02/02 10:06:09;;;;;;;20.25;3.08;;;;;;;4.73;73.75;99900.81;5088309;28;20429;-78
2022/02/02 10:14:16;;;;;;;18.65;3.03;;;;;;;4.87;73.32;99913.59;5067019;28;20048;-80
2022/02/02 10:16:44;;;;;;;24.00;4.32;;;;;;;4.90;72.93;99878.91;5052253;28;20029;-80
2022/02/02 10:19:16;;;;;;;23.67;2.72;;;;;;;4.92;72.57;99892.81;5052443;28;20020;-79
2022/02/02 10:21:42;;;;;;;18.48;3.80;;;;;;;4.92;72.10;99862.91;5068894;28;20032;-80
2022/02/02 10:24:07;;;;;;;16.85;3.42;;;;;;;5.08;71.80;99886.91;5086023;28;20375;-80
2022/02/02 10:26:42;;;;;;;27.57;3.70;;;;;;;5.20;71.46;99880.41;5069158;28;20067;-81
2022/02/02 10:29:09;;;;;;;24.42;3.83;;;;;;;5.12;71.52;99880.28;5068663;28;20470;-80
2022/02/02 10:31:39;;;;;;;19.88;4.30;;;;;;;5.07;71.61;99878.09;5051888;28;20485;-80
2022/02/02 10:34:10;;;;;;;17.30;4.03;;;;;;;5.36;71.55;99937.13;5067884;28;20486;-80
2022/02/02 10:36:35;;;;;;;26.90;3.75;;;;;;;5.23;70.85;99860.75;5068228;28;20032;-80
2022/02/02 10:39:10;;;;;;;32.17;4.23;;;;;;;5.15;70.94;99868.59;5084900;28;20690;-80
2022/02/02 10:41:47;;;;;;;23.20;4.07;;;;;;;5.21;70.93;99897.09;5068353;28;20039;-80
2022/02/02 10:44:17;;;;;;;25.60;4.07;;;;;;;5.39;70.91;99935.03;5051145;28;20036;-80
2022/02/02 10:47:10;;;;;;;18.33;2.85;;;;;;;5.28;71.02;99887.59;5067963;28;20668;-80
2022/02/02 10:49:48;;;;;;;17.90;3.17;;;;;;;5.33;71.11;99946.19;5084966;28;20055;-81
2022/02/02 10:58:22;;;;;;;17.02;3.63;;;;;;;5.64;70.80;99982.94;5085420;28;20037;-80
2022/02/02 11:06:38;;;;;;;26.33;4.60;;;;;;;5.61;71.79;100033.56;5089878;28;20032;-81
2022/02/02 11:09:09;;;;;;;23.17;3.28;;;;;;;5.69;71.83;100062.81;5056032;28;20052;-80
2022/02/02 11:11:42;;;;;;;18.73;3.92;;;;;;;5.75;72.02;100086.03;5075112;28;20086;-82
2022/02/02 11:14:33;;;;;;;20.75;3.40;;;;;;;5.58;71.62;100031.22;5059134;28;20029;-81
2022/02/02 11:17:25;;;;;;;22.17;4.18;;;;;;;5.49;71.38;99985.28;5058094;28;20055;-81
2022/02/02 11:19:56;;;;;;;19.73;3.35;;;;;;;5.48;71.05;99991.56;5044720;28;20094;-80
2022/02/02 11:22:33;;;;;;;26.50;3.10;;;;;;;5.69;70.96;100028.38;5068258;28;20039;-80
2022/02/02 11:25:04;;;;;;;20.33;3.47;;;;;;;5.78;71.22;100059.25;5052287;28;20046;-79
2022/02/02 11:27:38;;;;;;;21.30;3.40;;;;;;;5.72;71.33;100039.50;5085332;28;20028;-80
2022/02/02 11:30:30;;;;;;;21.02;4.30;;;;;;;6.40;71.34;100164.66;5068865;28;20047;-81
2022/02/02 11:32:59;;;;;;;20.27;3.30;;;;;;;6.30;70.96;100093.13;5069033;28;20047;-81
2022/02/02 11:38:05;;;;;;;13.23;3.90;;;;;;;6.31;70.55;100097.44;5068414;28;20093;-80
2022/02/02 11:40:34;;;;;;;21.13;2.83;;;;;;;6.44;69.88;100049.31;5068280;28;20091;-80
2022/02/02 11:43:14;;;;;;;25.10;3.22;;;;;;;6.01;69.99;100011.16;5068694;28;20089;-79
2022/02/02 11:45:43;;;;;;;20.33;4.05;;;;;;;6.05;69.51;100001.94;5085091;28;20089;-80
2022/02/02 11:48:16;;;;;;;19.80;4.10;;;;;;;6.54;69.30;100071.31;5085294;28;20029;-78
2022/02/02 11:50:51;;;;;;;16.33;2.75;;;;;;;6.16;68.59;99959.31;5067325;28;20036;-81
2022/02/02 11:53:55;;;;;;;20.08;3.20;;;;;;;6.11;68.77;99974.81;5050831;28;20064;-81
2022/02/02 11:56:27;;;;;;;10.73;2.13;;;;;;;6.08;68.80;99975.13;5050697;28;20450;-81
2022/02/02 11:58:52;;;;;;;13.93;2.80;;;;;;;5.99;68.85;99982.16;5084246;28;20041;-79
2022/02/02 12:01:45;;;;;;;13.50;3.57;;;;;;;5.75;69.54;99998.63;5071275;28;20055;-78
2022/02/02 12:04:41;;;;;;;15.45;2.35;;;;;;;5.88;70.05;100072.44;5070272;28;20477;-80
2022/02/02 12:07:08;;;;;;;18.25;2.88;;;;;;;5.95;70.29;100100.06;5090485;28;20064;-79
2022/02/02 12:09:56;;;;;;;9.77;2.40;;;;;;;6.20;70.03;100121.50;5090889;28;20029;-80
2022/02/02 12:21:32;;;;;;;17.10;3.33;;;;;;;6.57;66.31;99926.94;5090286;28;20036;-79
2022/02/02 12:57:53;;;;;;;8.43;1.70;;;;;;;6.08;64.09;99802.88;5077692;28;20027;-80
2022/02/02 13:00:36;;;;;;;11.50;2.90;;;;;;;5.84;64.09;99787.63;5074516;28;20039;-79
2022/02/02 13:03:03;;;;;;;11.93;1.90;;;;;;;5.87;63.84;99798.72;5076626;28;20058;-80
2022/02/02 13:05:28;;;;;;;11.48;1.75;;;;;;;5.97;64.35;99846.38;5071562;28;20037;-79
2022/02/02 13:07:56;;;;;;;6.13;1.73;;;;;;;6.13;63.94;99857.09;5091608;28;20036;-80
2022/02/02 13:10:28;;;;;;;6.60;1.58;;;;;;;7.03;63.14;99972.66;5076593;28;20089;-80
2022/02/02 13:13:14;;;;;;;11.65;2.25;;;;;;;7.62;61.24;99883.19;5072897;28;20490;-80
2022/02/02 13:26:20;;;;;;;11.23;1.85;;;;;;;8.57;58.37;99742.47;5089622;28;20036;-79
2022/02/02 13:32:15;;;;;;;8.73;2.28;;;;;;;8.06;58.82;99727.88;5089702;28;20062;-80
2022/02/02 13:51:13;;;;;;;9.23;1.10;;;;;;;8.06;57.34;99695.97;5090125;28;20044;-80
2022/02/02 13:59:21;;;;;;;6.80;1.52;;;;;;;6.95;58.24;99557.63;5090234;28;20040;-79
2022/02/02 14:04:25;;;;;;;11.77;1.83;;;;;;;6.65;59.66;99698.88;5088378;28;20031;-78
2022/02/02 14:07:12;;;;;;;8.70;0.90;;;;;;;6.85;60.01;99779.00;5072251;28;20416;-78
2022/02/02 14:31:10;;;;;;;7.57;1.50;;;;;;;6.52;57.85;99625.94;5088032;28;20028;-79
2022/02/02 14:33:38;;;;;;;5.25;1.35;;;;;;;6.22;57.75;99552.31;5071024;28;20559;-78
2022/02/02 14:36:07;;;;;;;7.28;1.02;;;;;;;5.99;57.97;99562.69;5087982;28;20032;-78
2022/02/02 14:38:39;;;;;;;5.88;1.02;;;;;;;5.89;57.80;99542.44;5071117;28;20785;-77
2022/02/02 14:41:29;;;;;;;4.93;1.83;;;;;;;5.81;58.18;99590.13;5070681;28;20028;-79
2022/02/02 14:44:01;;;;;;;9.68;1.30;;;;;;;6.00;58.84;99680.97;5070452;28;20031;-78
2022/02/02 14:46:34;;;;;;;15.55;1.90;;;;;;;5.62;59.12;99645.94;5089696;28;20397;-78
2022/02/02 14:49:10;;;;;;;5.97;1.70;;;;;;;5.66;59.02;99663.19;5071154;28;20038;-77
2022/02/02 14:54:15;;;;;;;12.65;1.92;;;;;;;5.37;60.55;99729.69;5093634;28;20066;-80
2022/02/02 15:29:30;;;;;;;11.98;1.30;;;;;;;4.70;67.48;100273.97;5090316;28;20093;-79
2022/02/02 15:31:57;;;;;;;10.23;2.08;;;;;;;4.63;68.26;100319.44;5073019;28;20042;-79
2022/02/02 15:34:33;;;;;;;14.30;3.00;;;;;;;4.46;69.79;100386.19;5073739;28;20810;-78
2022/02/02 15:37:23;;;;;;;;;;;;;;;4.54;71.19;100502.72;5073113;28;20067;-79
2022/02/02 15:40:00;;;;;;;11.90;2.15;;;;;;;4.43;72.68;100579.44;5089916;28;19922;-79
2022/02/02 15:56:49;;;;;;;7.18;1.98;;;;;;;4.14;76.62;100753.56;5090641;28;20036;-80
2022/02/02 15:58:48;;;;;;;14.50;2.58;;;;;;;4.16;77.04;100780.72;5096648;28;20175;-79
2022/02/02 16:03:43;;;;;;;15.07;2.77;;;;;;;4.02;77.93;100805.56;5094249;28;20043;-80
2022/02/02 16:06:21;;;;;;;18.05;2.28;;;;;;;3.84;78.55;100801.69;5094470;28;20036;-79
2022/02/02 16:08:50;;;;;;;10.60;2.78;;;;;;;3.93;78.91;100841.47;5112840;22;20028;-79
2022/02/02 16:13:45;;;;;;;18.73;3.30;;;;;;;3.76;79.71;100855.94;5023075;28;20025;-80
2022/02/02 16:19:06;;;;;;;12.75;1.92;;;;;;;3.66;80.86;100896.38;5041019;28;20029;-81
2022/02/02 16:37:28;;;;;;;15.50;2.25;;;;;;;3.29;82.53;100926.28;5032182;28;20482;-81
2022/02/02 16:39:58;;;;;;;9.90;3.30;;;;;;;3.23;82.57;100910.91;5014704;28;20044;-80
2022/02/02 16:45:08;;;;;;;14.50;2.72;;;;;;;3.16;82.71;100925.47;5031194;28;20080;-80
2022/02/02 16:47:34;;;;;;;11.30;2.28;;;;;;;3.21;82.47;100944.50;5033596;28;20040;-80
2022/02/02 16:49:59;;;;;;;16.80;2.57;;;;;;;3.15;82.39;100927.28;5018801;28;20175;-80
2022/02/02 16:52:27;;;;;;;9.63;2.33;;;;;;;3.30;82.10;100942.97;5018719;28;20037;-80
2022/02/02 16:54:53;;;;;;;11.23;2.35;;;;;;;3.24;81.99;100917.88;5018881;28;20116;-81
2022/02/02 16:57:41;;;;;;;15.85;2.45;;;;;;;3.39;80.88;100884.22;5018797;28;20035;-81
2022/02/02 17:35:34;;;;;;;15.00;2.95;;;;;;;2.91;82.20;100968.59;5013393;28;20493;-81
2022/02/02 17:38:14;;;;;;;;;;;;;;;2.95;82.62;100999.94;5029980;28;20403;-80
2022/02/02 17:41:38;;;;;;;12.63;2.42;;;;;;;2.85;83.30;101013.84;5017027;28;20399;-80
2022/02/02 17:44:01;;;;;;;13.77;3.22;;;;;;;2.80;83.73;101034.44;5025517;28;20107;-79
2022/02/02 18:21:16;;;;;;;14.38;2.67;;;;;;;2.22;88.90;101124.34;5050394;28;20087;-80
2022/02/02 18:26:18;;;;;;;18.53;2.77;;;;;;;2.15;89.65;101124.84;5032908;28;20033;-80
2022/02/02 18:45:16;;;;;;;14.00;2.10;;;;;;;1.77;91.52;101154.44;5065068;28;20094;-79
2022/02/02 18:47:56;;;;;;;18.58;2.97;;;;;;;1.70;92.29;101175.03;5032563;28;20051;-79
2022/02/02 18:56:02;;;;;;;15.82;3.83;;;;;;;1.44;93.97;101190.63;5031259;28;20140;-80
2022/02/02 19:01:19;;;;;;;41.92;4.38;;;;;;;1.41;95.32;101203.16;5068206;28;20021;-80
2022/02/02 19:39:56;;;;;;;17.67;4.43;;;;;;;1.22;100.00;101253.38;5045309;28;20060;-80
2022/02/02 19:55:40;;;;;;;18.90;4.18;;;;;;;1.28;100.00;101268.78;5044600;28;20037;-79
2022/02/02 20:11:26;;;;;;;15.68;3.00;;;;;;;1.13;100.00;101281.06;5011647;28;20143;-80
2022/02/02 20:13:52;;;;;;;19.17;5.70;;;;;;;1.12;100.00;101281.97;5011208;28;20168;-80
2022/02/02 20:16:17;;;;;;;23.80;3.67;;;;;;;1.04;100.00;101276.31;5011845;28;20104;-80
2022/02/02 20:18:45;;;;;;;21.10;3.17;;;;;;;1.03;100.00;101296.53;4994985;28;20805;-79
2022/02/02 20:21:12;;;;;;;22.15;4.00;;;;;;;0.98;100.00;101289.81;5010558;28;20022;-80
2022/02/02 20:23:43;;;;;;;22.90;3.65;;;;;;;0.95;100.00;101292.63;5015427;28;20053;-79
2022/02/02 20:26:11;;;;;;;24.05;3.65;;;;;;;0.87;100.00;101285.19;5015517;28;20418;-80
2022/02/02 20:28:36;;;;;;;18.70;3.72;;;;;;;0.79;100.00;101293.47;5014925;28;20143;-80
2022/02/02 20:31:02;;;;;;;32.15;5.95;;;;;;;0.75;100.00;101288.47;5015177;28;20857;-80
2022/02/02 20:33:28;;;;;;;34.47;4.72;;;;;;;0.70;100.00;101288.72;5014990;28;20418;-80
2022/02/02 20:35:54;;;;;;;20.98;3.08;;;;;;;0.77;100.00;101303.25;5014715;28;20026;-80
2022/02/02 20:38:19;;;;;;;29.05;4.70;;;;;;;0.79;100.00;101313.66;5015217;28;20135;-80
2022/02/02 20:40:45;;;;;;;19.15;4.25;;;;;;;0.73;100.00;101314.03;5014981;28;20112;-79
2022/02/02 20:43:14;;;;;;;17.17;3.17;;;;;;;0.64;100.00;101315.38;5014836;28;20037;-80
2022/02/02 21:07:28;;;;;;;18.45;4.05;;;;;;;0.88;100.00;101343.88;5031221;28;20068;-79
2022/02/02 21:10:17;;;;;;;18.83;3.50;;;;;;;0.81;100.00;101317.91;5040753;28;20040;-80
2022/02/02 21:15:26;;;;;;;14.38;3.88;;;;;;;0.92;100.00;101319.09;5066970;28;20756;-79
2022/02/02 21:17:54;;;;;;;20.90;3.58;;;;;;;1.02;100.00;101323.75;5005909;28;20029;-80
2022/02/02 21:20:26;;;;;;;21.98;3.85;;;;;;;1.05;100.00;101326.22;4998993;28;20037;-80
2022/02/02 21:22:57;;;;;;;22.27;5.65;;;;;;;1.12;100.00;101325.84;5018953;28;20426;-80
2022/02/02 21:28:09;;;;;;;20.35;4.90;;;;;;;1.29;100.00;101315.22;5033377;28;20037;-79
2022/02/02 21:30:37;;;;;;;42.17;6.03;;;;;;;1.34;100.00;101309.69;5013298;28;20056;-80
2022/02/02 21:33:03;;;;;;;24.00;4.55;;;;;;;1.36;100.00;101311.31;5028349;28;20880;-79
2022/02/02 21:35:29;;;;;;;21.85;4.93;;;;;;;1.45;100.00;101299.38;5013395;28;20088;-80
2022/02/02 21:38:02;;;;;;;24.42;4.95;;;;;;;1.45;100.00;101294.97;5065797;28;20029;-80
2022/02/02 21:40:29;;;;;;;16.67;3.10;;;;;;;1.50;100.00;101284.19;5033165;28;20124;-80
2022/02/02 21:42:56;;;;;;;9.95;3.03;;;;;;;1.58;100.00;101289.81;5016895;28;20031;-80
2022/02/02 21:45:24;;;;;;;23.55;3.17;;;;;;;1.53;100.00;101283.16;5016660;28;20237;-79
2022/02/02 21:47:50;;;;;;;28.67;4.78;;;;;;;1.61;100.00;101273.00;5017564;28;20025;-80
2022/02/02 21:50:18;;;;;;;;;;;;;;;1.65;100.00;101277.97;5017546;28;20055;-80
2022/02/02 21:52:46;;;;;;;25.17;4.40;;;;;;;1.65;100.00;101267.44;5014055;28;19916;-79
2022/02/02 21:55:12;;;;;;;21.77;3.05;;;;;;;1.67;100.00;101265.56;5047036;28;20021;-80
2022/02/02 21:57:38;;;;;;;17.35;3.00;;;;;;;1.74;100.00;101265.22;5017416;28;20086;-79
2022/02/02 22:00:05;;;;;;;34.33;7.32;;;;;;;1.73;100.00;101258.25;5017464;28;20573;-80
2022/02/02 22:02:39;;;;;;;13.95;2.97;;;;;;;1.79;100.00;101255.25;5034708;28;20036;-80
2022/02/02 22:05:06;;;;;;;22.15;3.72;;;;;;;1.78;100.00;101257.03;5017094;28;20047;-79
2022/02/02 22:07:31;;;;;;;27.88;5.25;;;;;;;1.86;100.00;101264.47;5017062;28;20375;-79
2022/02/02 22:09:59;;;;;;;27.58;5.57;;;;;;;1.82;100.00;101257.69;5016934;28;20028;-79
2022/02/02 22:12:25;;;;;;;18.88;3.70;;;;;;;1.87;100.00;101266.16;5016476;28;20041;-79
2022/02/02 22:14:52;;;;;;;19.58;4.25;;;;;;;1.86;100.00;101267.09;5016949;28;20124;-80
2022/02/02 22:17:19;;;;;;;24.15;5.05;;;;;;;1.87;100.00;101268.78;5018252;28;20021;-80
2022/02/02 22:19:48;;;;;;;31.25;4.60;;;;;;;1.96;100.00;101277.91;5017396;28;20124;-80
2022/02/02 22:22:13;;;;;;;39.60;6.70;;;;;;;1.90;100.00;101280.00;5034289;28;20041;-80
2022/02/02 22:24:39;;;;;;;14.80;3.27;;;;;;;1.87;100.00;101272.28;5016877;28;20029;-79
2022/02/02 22:27:05;;;;;;;31.00;3.45;;;;;;;2.03;100.00;101280.06;5032304;28;20131;-80